Main page
METAR-TAF:

METAR-TAF

Airports :

Lisbon Airport

Lisbon, Portugal

latitude: 38-46N, longitude: 009-08W, elevation: 114 m

Current weather observation

The report was made 25 minutes ago, at 11:30 UTC
Wind 6 kt from the East/Northeast, varying between North and Southeast
Temperature 24°C
Humidity 57%
Pressure 1021 hPa
Visibility 10 km or more
no clouds below 1500 m and no cumulonimbus

METAR: LPPT 191130Z 07006KT 360V130 CAVOK 24/15 Q1021

Time: 12:55 (11:55 UTC)

Forecast

The report was made 55 minutes ago, at 11:00 UTC
Forecast valid from 19 at 12 UTC to 20 at 18 UTC
Wind 5 kt from the East
Visibility 10 km or more
no clouds below 1500 m and no cumulonimbus
Becoming
from 19 at 15 UTC to 19 at 17 UTC
Wind 13 kt from the North/Northwest
Becoming
from 20 at 00 UTC to 20 at 02 UTC
Wind 8 kt from the North
Becoming
from 20 at 16 UTC to 20 at 18 UTC
Wind 13 kt from the North/Northwest

TAF: LPPT 191100Z 1912/2018 08005KT CAVOK BECMG 1915/1917 34013KT BECMG 2000/2002 01008KT BECMG 2016/2018 34013KT

Weather observations and forecasts of more than 4000 airports (METAR and TAF reports).

The available stations are represented by yellow and red dots on the map.

Hover mouse over dot to see the name of the station.

Then click to see weather observations and forecasts.

To change the map : click on the green buttons with a black cross to zoom in, on the green button with a dash to zoom out, or on the green arrows for adjacent maps.


METAR-TAF: